Mont Clare, PA (19453)

12:06 AM EDT on October 26, 2014 (GMT -0400)
West End, Phoenixville | Change Station
CLOSE
Current Station
Personal Weather Station
Location: Phoenixville, PA
Elevation: 213 ft
Nearby Weather Stations

Elev 213 ft 40.13 °N, 75.53 °W | Updated 8 minutes ago

Partly Cloudy
Partly Cloudy
61.8 °F
Feels Like 61.8 °F
N
1.0
Wind Variable Wind from SW
Gusts 8.0 mph

Today
High -- | Low -- °F
--% Chance of Precip.
Yesterday
High -- | Low -- °F
Precip. -- in
7:24 AM 6:06 PM
Waxing Crescent, 5% visible
Pressure 29.62 in
Visibility 10.0 miles
Clouds Mostly Cloudy 7500 ft
Overcast 9000 ft
Dew Point 46 °F
Humidity 57%
Rainfall 0.00 in
Snow Depth Not available.
UV 0 out of 12
Pollen .10 out of 12
Air Quality Not available.
Flu Activity Sporadic
METAR KPTW 260354Z AUTO 22007KT 10SM BKN075 OVC090 16/07 A2963 RMK AO2 SLP031 T01560067

More Conditions Fewer Conditions

Pressure 29.62 in
Visibility 10.0 miles
Clouds Mostly Cloudy 7500 ft
Overcast 9000 ft
Dew Point 46 °F
Humidity 57%
Rainfall 0.00 in
Snow Depth Not available.
UV 0 out of 12
Pollen .10 out of 12
Air Quality Not available.
Flu Activity Sporadic
METAR KPTW 260354Z AUTO 22007KT 10SM BKN075 OVC090 16/07 A2963 RMK AO2 SLP031 T01560067

More Conditions Fewer Conditions

10-Day Weather Forecast

Almanac

Astronomy

Oct. 26, 2014 Rise Set
Actual Time 7:24 AM EDT 6:06 PM EDT
Civil Twilight 6:56 AM EDT 6:34 PM EDT
Nautical Twilight 6:24 AM EDT 7:06 PM EDT
Astronomical Twilight 5:53 AM EDT 7:37 PM EDT
Moon 10:00 AM EDT 8:16 PM EDT
Length of Visible Light 11h 37m
Length of Day
10h 42m
Tomorrow will be 2m 26s shorter.
Waxing Crescent, 5% of the Moon is Illuminated
Today
Waxing Crescent
Oct 30
First Quarter
Nov 6
Full
Nov 14
Last Quarter
Nov 22
New

Yesterday's Extremes

State Highs State Lows

Community

WunderPhotos

Upload Photos

1,765,106 photos uploaded!

Nearby

Snow Depth

Station Depth Elevation
No new snow has been reported.

Earthquake Activity

City Distance Mag. Time & Date
No recent earthquake activity has been reported nearby.
Minimum magnitude displayed is 2.5.

Coastal Water Temperatures

Place Temperature
Cape May, NJ 64.0 °F
Reedy Point, DE 61.0 °F
Delaware City, DE 61.0 °F
Marcus Hook, PA 62.1 °F

Nearby Weather Stations